createdAt,value
2022-10-04T00:01:45.250Z,56.84
2022-10-04T00:04:17.851Z,56.96
2022-10-04T00:06:55.202Z,57.07
2022-10-04T00:09:26.340Z,56.57
2022-10-04T00:11:55.901Z,56.69
2022-10-04T00:14:32.914Z,56.72
2022-10-04T00:17:07.984Z,56.89
2022-10-04T00:19:43.299Z,56.74
2022-10-04T00:22:13.278Z,57.00
2022-10-04T00:25:13.616Z,57.22
2022-10-04T00:28:01.039Z,56.97
2022-10-04T00:30:37.282Z,57.39
2022-10-04T00:33:04.659Z,57.09
2022-10-04T00:35:31.111Z,57.30
2022-10-04T00:37:59.681Z,57.11
2022-10-04T00:40:54.214Z,57.62
2022-10-04T00:43:33.873Z,57.29
2022-10-04T00:46:29.431Z,57.37
2022-10-04T00:49:04.369Z,57.43
2022-10-04T00:51:54.641Z,57.52
2022-10-04T00:54:42.148Z,57.69
2022-10-04T00:57:15.447Z,57.42
2022-10-04T00:59:46.105Z,57.51
2022-10-04T01:02:43.277Z,57.00
2022-10-04T01:05:15.114Z,57.43
2022-10-04T01:07:45.629Z,57.17
2022-10-04T01:10:27.468Z,57.44
2022-10-04T01:12:56.718Z,57.51
2022-10-04T01:15:42.827Z,57.28
2022-10-04T01:18:16.159Z,57.46
2022-10-04T01:20:57.844Z,57.18
2022-10-04T01:23:57.790Z,57.54
2022-10-04T01:26:29.156Z,57.42
2022-10-04T01:29:24.289Z,57.81
2022-10-04T01:31:53.980Z,57.44
2022-10-04T01:34:27.997Z,57.50
2022-10-04T01:36:57.582Z,57.86
2022-10-04T01:39:25.938Z,57.65
2022-10-04T01:42:10.941Z,57.96
2022-10-04T01:45:19.135Z,57.79
2022-10-04T01:48:01.650Z,57.94
2022-10-04T01:50:32.940Z,58.30
2022-10-04T01:53:14.927Z,57.96
2022-10-04T01:55:45.401Z,57.93
2022-10-04T01:58:21.517Z,58.10
2022-10-04T02:00:57.428Z,58.34
2022-10-04T02:03:34.172Z,58.39
2022-10-04T02:06:05.076Z,57.90
2022-10-04T02:08:35.635Z,58.05
2022-10-04T02:11:04.921Z,57.96
2022-10-04T02:13:37.516Z,57.75
2022-10-04T02:16:08.828Z,58.10
2022-10-04T02:18:38.245Z,57.84
2022-10-04T02:21:06.567Z,57.98
2022-10-04T02:23:35.422Z,57.87
2022-10-04T02:26:06.931Z,58.00
2022-10-04T02:28:35.035Z,58.15
2022-10-04T02:31:22.084Z,58.02
2022-10-04T02:33:57.215Z,57.79
2022-10-04T02:36:27.721Z,57.89
2022-10-04T02:39:02.786Z,58.34
2022-10-04T02:41:35.854Z,58.13
2022-10-04T02:44:15.990Z,58.10
2022-10-04T02:46:48.340Z,57.99
2022-10-04T02:49:26.794Z,58.23
2022-10-04T02:52:02.185Z,58.00
2022-10-04T02:54:52.730Z,57.92
2022-10-04T02:57:21.755Z,58.02
2022-10-04T02:59:49.032Z,57.91
2022-10-04T03:02:29.865Z,57.83
2022-10-04T03:05:11.030Z,57.92
2022-10-04T03:07:38.905Z,57.84
2022-10-04T03:10:12.003Z,57.91
2022-10-04T03:12:42.127Z,57.87
2022-10-04T03:15:15.450Z,57.91
2022-10-04T03:17:43.988Z,58.06
2022-10-04T03:20:15.847Z,57.98
2022-10-04T03:22:47.137Z,58.16
2022-10-04T03:25:21.234Z,58.30
2022-10-04T03:27:49.556Z,58.10
2022-10-04T03:30:20.143Z,57.98
2022-10-04T03:32:48.263Z,58.15
2022-10-04T03:35:37.300Z,58.26
2022-10-04T03:38:11.068Z,57.81
2022-10-04T03:40:41.813Z,58.11
2022-10-04T03:43:12.435Z,58.07
2022-10-04T03:45:40.797Z,57.83
2022-10-04T03:48:13.498Z,57.83
2022-10-04T03:50:46.981Z,58.03
2022-10-04T03:53:51.487Z,58.17
2022-10-04T03:56:31.027Z,57.81
2022-10-04T03:58:58.835Z,57.93
2022-10-04T04:01:50.738Z,58.13
2022-10-04T04:04:31.165Z,57.82
2022-10-04T04:07:12.957Z,57.87
2022-10-04T04:09:51.124Z,57.84
2022-10-04T04:12:25.782Z,58.25
2022-10-04T04:14:54.062Z,57.93
2022-10-04T04:17:27.165Z,57.86
2022-10-04T04:19:57.573Z,58.11
2022-10-04T04:22:24.874Z,57.90
2022-10-04T04:24:52.060Z,57.99
2022-10-04T04:27:19.939Z,58.08
2022-10-04T04:29:52.657Z,57.93
2022-10-04T04:32:31.672Z,58.02
2022-10-04T04:35:06.998Z,58.26
2022-10-04T04:37:35.417Z,57.83
2022-10-04T04:40:19.734Z,58.35
2022-10-04T04:42:47.654Z,58.36
2022-10-04T04:45:19.808Z,58.13
2022-10-04T04:47:50.568Z,57.79
2022-10-04T04:50:18.965Z,58.01
2022-10-04T04:52:54.929Z,58.25
2022-10-04T04:55:49.990Z,58.06
2022-10-04T04:58:26.909Z,58.01
2022-10-04T05:01:01.562Z,58.03
2022-10-04T05:03:31.126Z,58.29
2022-10-04T05:06:02.763Z,58.04
2022-10-04T05:08:31.574Z,58.02
2022-10-04T05:10:57.973Z,58.38
2022-10-04T05:16:34.706Z,58.51
2022-10-04T05:19:05.474Z,58.24
2022-10-04T05:21:34.813Z,58.72
2022-10-04T05:24:19.962Z,58.64
2022-10-04T05:26:50.169Z,58.51
2022-10-04T05:29:20.000Z,58.32
2022-10-04T05:31:58.536Z,58.54
2022-10-04T05:34:29.024Z,58.47
2022-10-04T05:37:10.260Z,58.27
2022-10-04T05:39:43.419Z,58.58
2022-10-04T05:42:28.989Z,58.39
2022-10-04T05:44:58.479Z,58.28
2022-10-04T05:47:30.476Z,58.24
2022-10-04T05:50:00.868Z,58.45
2022-10-04T05:52:36.059Z,58.36
2022-10-04T05:55:55.613Z,58.17
2022-10-04T05:59:01.314Z,58.41
2022-10-04T06:01:37.566Z,58.02
2022-10-04T06:04:36.676Z,58.46
2022-10-04T06:07:40.516Z,58.06
2022-10-04T06:10:37.119Z,58.20
2022-10-04T06:13:25.980Z,58.37
2022-10-04T06:16:20.566Z,58.26
2022-10-04T06:19:10.123Z,58.24
2022-10-04T06:22:06.510Z,58.31
2022-10-04T06:24:37.597Z,58.60
2022-10-04T06:27:13.226Z,58.54
2022-10-04T06:29:46.552Z,58.16
2022-10-04T06:32:28.169Z,58.30
2022-10-04T06:35:10.636Z,58.39
2022-10-04T06:38:06.525Z,58.91
2022-10-04T06:41:14.150Z,58.58
2022-10-04T06:44:12.538Z,58.59
2022-10-04T06:46:50.099Z,58.87
2022-10-04T06:49:42.906Z,58.78
2022-10-04T06:52:37.302Z,58.96
2022-10-04T06:55:25.958Z,58.94
2022-10-04T06:58:23.770Z,59.10
2022-10-04T07:00:58.578Z,58.96
2022-10-04T07:03:43.642Z,59.33
2022-10-04T07:06:13.055Z,59.05
2022-10-04T07:08:41.396Z,59.05
2022-10-04T07:11:13.686Z,59.38
2022-10-04T07:14:13.561Z,59.52
2022-10-04T07:16:56.305Z,59.47
2022-10-04T07:19:31.151Z,59.76
2022-10-04T07:22:06.682Z,59.69
2022-10-04T07:24:51.033Z,59.94
2022-10-04T07:27:23.470Z,60.06
2022-10-04T07:29:55.398Z,59.57
2022-10-04T07:32:27.366Z,59.78
2022-10-04T07:35:09.201Z,59.52
2022-10-04T07:37:58.065Z,59.58
2022-10-04T07:40:33.489Z,59.27
2022-10-04T07:43:06.006Z,59.29
2022-10-04T07:45:37.252Z,58.99
2022-10-04T07:48:13.558Z,58.80
2022-10-04T07:50:58.195Z,58.84
2022-10-04T07:53:37.521Z,58.72
2022-10-04T07:56:17.590Z,58.23
2022-10-04T07:59:15.787Z,58.10
2022-10-04T08:02:16.573Z,58.26
2022-10-04T08:05:18.295Z,57.61
2022-10-04T08:08:09.065Z,57.61
2022-10-04T08:10:57.423Z,57.57
2022-10-04T08:13:47.235Z,57.62
2022-10-04T08:16:33.145Z,57.36
2022-10-04T08:19:37.604Z,56.79
2022-10-04T08:22:16.750Z,56.62
2022-10-04T08:24:53.747Z,56.62
2022-10-04T08:27:39.526Z,55.89
2022-10-04T08:30:09.372Z,56.22
2022-10-04T08:32:51.270Z,55.89
2022-10-04T08:35:20.849Z,55.71
2022-10-04T08:38:02.646Z,55.72
2022-10-04T08:40:44.759Z,55.42
2022-10-04T08:43:20.301Z,55.17
2022-10-04T08:45:56.331Z,54.82
2022-10-04T08:48:35.362Z,54.52
2022-10-04T08:51:10.829Z,54.49
2022-10-04T08:54:04.572Z,54.19
2022-10-04T08:56:33.948Z,53.87
2022-10-04T08:59:46.490Z,53.84
2022-10-04T09:02:57.188Z,53.43
2022-10-04T09:06:07.723Z,53.11
2022-10-04T09:08:52.691Z,53.40
2022-10-04T09:11:41.410Z,52.81
2022-10-04T09:14:14.346Z,52.42
2022-10-04T09:16:48.454Z,52.12
2022-10-04T09:19:39.931Z,52.14
2022-10-04T09:22:30.382Z,52.13
2022-10-04T09:25:09.115Z,51.89
2022-10-04T09:27:55.073Z,51.81
2022-10-04T09:30:25.101Z,51.43
2022-10-04T09:32:59.328Z,51.37
2022-10-04T09:35:54.844Z,51.03
2022-10-04T09:39:05.873Z,51.12
2022-10-04T09:41:45.902Z,51.32
2022-10-04T09:44:44.073Z,50.72
2022-10-04T09:47:31.902Z,50.61
2022-10-04T09:50:26.589Z,50.59
2022-10-04T09:53:31.397Z,50.29
2022-10-04T09:56:09.115Z,50.27
2022-10-04T09:58:46.326Z,50.19
2022-10-04T10:01:28.268Z,49.73
2022-10-04T10:04:32.949Z,49.58
2022-10-04T10:07:21.037Z,49.58
2022-10-04T10:10:38.094Z,49.40
2022-10-04T10:13:49.509Z,49.28
2022-10-04T10:16:42.019Z,48.78
2022-10-04T10:19:57.043Z,48.47
2022-10-04T10:23:00.489Z,48.64
2022-10-04T10:25:39.407Z,48.62
2022-10-04T10:28:17.755Z,48.09
2022-10-04T10:31:14.144Z,48.14
2022-10-04T10:34:14.461Z,48.24
2022-10-04T10:37:09.062Z,48.01
2022-10-04T10:40:03.001Z,47.69
2022-10-04T10:42:40.074Z,47.50
2022-10-04T10:45:45.767Z,47.48
2022-10-04T10:48:35.339Z,47.11
2022-10-04T10:51:10.807Z,46.95
2022-10-04T10:54:09.901Z,46.49
2022-10-04T10:57:00.731Z,46.26
2022-10-04T11:00:01.328Z,46.41
2022-10-04T11:03:23.915Z,45.98
2022-10-04T11:06:06.120Z,46.35
2022-10-04T11:09:06.576Z,46.32
2022-10-04T11:11:58.040Z,45.75
2022-10-04T11:14:47.095Z,44.97
2022-10-04T11:17:38.187Z,45.20
2022-10-04T11:20:16.621Z,45.39
2022-10-04T11:23:02.062Z,45.15
2022-10-04T11:25:48.762Z,44.97
2022-10-04T11:28:57.453Z,45.02
2022-10-04T11:31:55.897Z,44.94
2022-10-04T11:35:22.285Z,44.73
2022-10-04T11:38:15.741Z,44.59
2022-10-04T11:41:07.242Z,44.29
2022-10-04T11:43:36.701Z,44.22
2022-10-04T11:46:20.768Z,43.52
2022-10-04T11:49:24.578Z,43.22
2022-10-04T11:52:22.785Z,43.09
2022-10-04T11:55:10.669Z,42.51
2022-10-04T11:58:14.578Z,42.57
2022-10-04T12:01:08.742Z,42.58
2022-10-04T12:03:47.582Z,42.43
2022-10-04T12:06:26.125Z,42.36
2022-10-04T12:08:59.411Z,42.01
2022-10-04T12:12:13.148Z,41.80
2022-10-04T12:15:00.109Z,41.97
2022-10-04T12:17:47.874Z,41.60
2022-10-04T12:20:40.072Z,41.74
2022-10-04T12:23:29.079Z,41.67
2022-10-04T12:26:20.313Z,41.51
2022-10-04T12:28:59.017Z,41.05
2022-10-04T12:31:34.635Z,40.91
2022-10-04T12:34:32.061Z,40.95
2022-10-04T12:37:16.850Z,41.18
2022-10-04T12:39:51.403Z,40.65
2022-10-04T12:42:36.125Z,40.49
2022-10-04T12:45:53.806Z,40.51
2022-10-04T12:48:27.650Z,40.76
2022-10-04T12:51:04.606Z,40.59
2022-10-04T12:54:01.204Z,40.21
2022-10-04T12:56:58.829Z,39.73
2022-10-04T12:59:37.222Z,39.82
2022-10-04T13:02:22.255Z,40.02
2022-10-04T13:05:28.249Z,39.71
2022-10-04T13:08:01.558Z,39.71
2022-10-04T13:10:44.666Z,40.08
2022-10-04T13:13:31.531Z,39.59
2022-10-04T13:19:05.978Z,39.40
2022-10-04T13:21:41.150Z,39.43
2022-10-04T13:24:55.010Z,39.26
2022-10-04T13:27:30.900Z,39.37
2022-10-04T13:30:15.149Z,38.98
2022-10-04T13:33:18.272Z,39.04
2022-10-04T13:35:47.469Z,38.94
2022-10-04T13:38:27.742Z,38.61
2022-10-04T13:41:30.972Z,38.67
2022-10-04T13:44:24.681Z,38.54
2022-10-04T13:46:54.159Z,38.41
2022-10-04T13:49:28.130Z,38.13
2022-10-04T13:52:22.375Z,38.30
2022-10-04T13:55:24.465Z,37.82
2022-10-04T13:58:15.371Z,37.44
2022-10-04T14:01:00.821Z,37.53
2022-10-04T14:03:47.086Z,37.90
2022-10-04T14:06:44.462Z,37.76
2022-10-04T14:09:45.306Z,37.63
2022-10-04T14:12:45.773Z,37.68
2022-10-04T14:15:43.297Z,37.44
2022-10-04T14:18:12.546Z,37.60
2022-10-04T14:21:00.430Z,37.72
2022-10-04T14:23:53.878Z,37.65
2022-10-04T14:26:29.970Z,37.52
2022-10-04T14:29:35.641Z,37.78
2022-10-04T14:32:32.650Z,37.85
2022-10-04T14:35:18.445Z,38.08
2022-10-04T14:38:08.249Z,38.23
2022-10-04T14:40:59.982Z,38.30
2022-10-04T14:44:16.007Z,38.47
2022-10-04T14:46:58.167Z,38.59
2022-10-04T14:49:51.623Z,38.61
2022-10-04T14:52:56.849Z,38.68
2022-10-04T14:55:55.218Z,38.76
2022-10-04T14:58:55.867Z,39.04
2022-10-04T15:01:30.099Z,38.99
2022-10-04T15:04:44.202Z,38.99
2022-10-04T15:07:21.997Z,38.97
2022-10-04T15:10:14.624Z,39.39
2022-10-04T15:13:12.256Z,39.35
2022-10-04T15:15:55.980Z,39.55
2022-10-04T15:18:56.683Z,39.86
2022-10-04T15:21:50.191Z,40.21
2022-10-04T15:24:27.666Z,40.21
2022-10-04T15:27:29.220Z,40.40
2022-10-04T15:30:17.590Z,40.32
2022-10-04T15:32:47.108Z,40.52
2022-10-04T15:35:28.857Z,40.60
2022-10-04T15:38:20.198Z,40.59
2022-10-04T15:41:13.429Z,40.54
2022-10-04T15:44:07.679Z,41.03
2022-10-04T15:47:15.278Z,41.19
2022-10-04T15:50:23.485Z,41.26
2022-10-04T15:53:19.625Z,41.49
2022-10-04T15:56:06.274Z,41.59
2022-10-04T15:58:53.038Z,41.65
2022-10-04T16:01:31.900Z,41.96
2022-10-04T16:04:18.143Z,42.10
2022-10-04T16:06:54.194Z,42.36
2022-10-04T16:09:29.514Z,42.50
2022-10-04T16:11:56.055Z,42.61
2022-10-04T16:14:31.988Z,42.75
2022-10-04T16:17:09.688Z,43.20
2022-10-04T16:19:46.109Z,43.34
2022-10-04T16:22:17.518Z,43.36
2022-10-04T16:24:53.315Z,43.49
2022-10-04T16:27:42.062Z,43.58
2022-10-04T16:30:28.212Z,43.62
2022-10-04T16:32:58.313Z,43.99
2022-10-04T16:35:39.906Z,44.02
2022-10-04T16:38:12.298Z,44.18
2022-10-04T16:40:59.045Z,44.44
2022-10-04T16:43:29.516Z,44.43
2022-10-04T16:46:23.113Z,44.96
2022-10-04T16:48:58.527Z,44.86
2022-10-04T16:51:46.720Z,45.11
2022-10-04T16:54:31.434Z,45.22
2022-10-04T16:56:57.958Z,44.93
2022-10-04T16:59:39.519Z,45.62
2022-10-04T17:02:26.195Z,45.26
2022-10-04T17:05:22.386Z,45.58
2022-10-04T17:08:16.810Z,45.78
2022-10-04T17:10:49.339Z,45.84
2022-10-04T17:13:30.566Z,46.26
2022-10-04T17:16:16.157Z,46.13
2022-10-04T17:19:08.068Z,46.10
2022-10-04T17:21:48.278Z,46.17
2022-10-04T17:24:34.299Z,46.45
2022-10-04T17:27:26.024Z,46.65
2022-10-04T17:30:22.246Z,46.86
2022-10-04T17:33:22.710Z,46.97
2022-10-04T17:36:16.957Z,47.05
2022-10-04T17:39:05.294Z,46.93
2022-10-04T17:41:50.238Z,47.48
2022-10-04T17:44:34.149Z,47.16
2022-10-04T17:47:24.308Z,47.37
2022-10-04T17:50:23.626Z,47.51
2022-10-04T17:53:18.434Z,47.69
2022-10-04T17:56:00.330Z,47.54
2022-10-04T17:58:51.236Z,48.05
2022-10-04T18:01:38.037Z,47.97
2022-10-04T18:04:26.343Z,48.00
2022-10-04T18:07:04.305Z,48.32
2022-10-04T18:09:41.705Z,48.14
2022-10-04T18:12:10.860Z,48.17
2022-10-04T18:15:07.347Z,48.49
2022-10-04T18:17:38.639Z,48.41
2022-10-04T18:20:27.034Z,48.96
2022-10-04T18:23:17.732Z,48.73
2022-10-04T18:25:46.265Z,48.59
2022-10-04T18:28:21.664Z,49.14
2022-10-04T18:31:26.916Z,49.07
2022-10-04T18:34:01.524Z,49.11
2022-10-04T18:36:33.439Z,49.26
2022-10-04T18:39:12.124Z,48.97
2022-10-04T18:41:57.996Z,48.92
2022-10-04T18:44:41.762Z,48.95
2022-10-04T18:47:33.478Z,49.20
2022-10-04T18:50:06.688Z,49.05
2022-10-04T18:52:48.132Z,48.94
2022-10-04T18:55:18.504Z,49.35
2022-10-04T18:58:11.999Z,49.08
2022-10-04T19:01:02.152Z,49.10
2022-10-04T19:06:28.563Z,49.55
2022-10-04T19:08:58.630Z,49.55
2022-10-04T19:11:43.114Z,49.49
2022-10-04T19:14:24.832Z,49.42
2022-10-04T19:17:03.094Z,49.61
2022-10-04T19:20:18.521Z,49.80
2022-10-04T19:23:00.937Z,49.55
2022-10-04T19:26:17.610Z,49.89
2022-10-04T19:28:39.552Z,49.75
2022-10-04T19:31:13.657Z,50.13
2022-10-04T19:34:14.260Z,50.11
2022-10-04T19:37:09.010Z,49.77
2022-10-04T19:39:56.317Z,49.88
2022-10-04T19:42:41.470Z,50.05
2022-10-04T19:45:21.857Z,50.49
2022-10-04T19:47:58.355Z,50.53
2022-10-04T19:50:37.117Z,50.48
2022-10-04T19:53:22.223Z,50.64
2022-10-04T19:55:58.453Z,50.56
2022-10-04T19:58:41.692Z,50.83
2022-10-04T20:01:21.370Z,50.92
2022-10-04T20:04:10.671Z,50.64
2022-10-04T20:06:40.687Z,50.96
2022-10-04T20:09:26.338Z,51.25
2022-10-04T20:11:53.226Z,51.41
2022-10-04T20:14:23.424Z,51.24
2022-10-04T20:16:50.457Z,51.21
2022-10-04T20:19:29.341Z,51.70
2022-10-04T20:22:18.385Z,51.70
2022-10-04T20:24:44.868Z,51.31
2022-10-04T20:27:20.627Z,51.69
2022-10-04T20:29:53.069Z,51.46
2022-10-04T20:32:37.555Z,51.41
2022-10-04T20:35:10.276Z,51.42
2022-10-04T20:38:13.897Z,51.54
2022-10-04T20:40:45.794Z,51.55
2022-10-04T20:43:15.394Z,51.79
2022-10-04T20:45:51.317Z,51.76
2022-10-04T20:48:20.965Z,51.70
2022-10-04T20:50:49.719Z,51.53
2022-10-04T20:53:25.842Z,51.82
2022-10-04T20:56:11.858Z,51.82
2022-10-04T20:58:40.296Z,51.61
2022-10-04T21:01:46.556Z,51.75
2022-10-04T21:04:33.581Z,51.63
2022-10-04T21:07:02.239Z,51.93
2022-10-04T21:09:31.105Z,51.94
2022-10-04T21:11:58.531Z,52.03
2022-10-04T21:14:34.468Z,52.03
2022-10-04T21:17:03.344Z,51.84
2022-10-04T21:19:30.192Z,51.93
2022-10-04T21:21:58.510Z,52.19
2022-10-04T21:24:49.402Z,52.13
2022-10-04T21:27:48.406Z,51.88
2022-10-04T21:30:17.365Z,51.61
2022-10-04T21:32:44.059Z,51.80
2022-10-04T21:35:12.798Z,52.16
2022-10-04T21:37:39.279Z,52.03
2022-10-04T21:40:06.916Z,52.13
2022-10-04T21:42:33.573Z,52.00
2022-10-04T21:45:01.558Z,51.95
2022-10-04T21:47:28.021Z,52.31
2022-10-04T21:49:55.103Z,52.25
2022-10-04T21:52:21.731Z,52.41
2022-10-04T21:54:49.473Z,52.01
2022-10-04T21:57:15.965Z,52.14
2022-10-04T21:59:42.414Z,52.48
2022-10-04T22:02:08.917Z,52.09
2022-10-04T22:04:38.008Z,52.60
2022-10-04T22:07:04.717Z,52.24
2022-10-04T22:09:32.573Z,52.55
2022-10-04T22:11:59.037Z,52.41
2022-10-04T22:14:29.776Z,52.62
2022-10-04T22:16:56.294Z,52.37
2022-10-04T22:19:22.800Z,52.31
2022-10-04T22:21:49.292Z,52.59
2022-10-04T22:24:19.583Z,52.67
2022-10-04T22:26:46.918Z,52.67
2022-10-04T22:29:15.688Z,52.86
2022-10-04T22:31:46.607Z,52.58
2022-10-04T22:34:19.825Z,52.50
2022-10-04T22:36:48.789Z,52.77
2022-10-04T22:39:17.871Z,52.84
2022-10-04T22:41:47.278Z,52.78
2022-10-04T22:44:29.364Z,53.10
2022-10-04T22:46:59.172Z,52.71
2022-10-04T22:49:31.537Z,52.72
2022-10-04T22:51:59.578Z,52.96
2022-10-04T22:54:33.510Z,53.17
2022-10-04T22:57:00.105Z,52.97
2022-10-04T22:59:38.917Z,53.16
2022-10-04T23:02:29.217Z,52.87
2022-10-04T23:05:09.999Z,53.10
2022-10-04T23:07:38.569Z,53.20
2022-10-04T23:10:06.313Z,52.90
2022-10-04T23:12:32.842Z,52.96
2022-10-04T23:15:06.297Z,53.00
2022-10-04T23:17:39.800Z,53.12
2022-10-04T23:20:13.498Z,53.39
2022-10-04T23:22:42.726Z,53.31
2022-10-04T23:25:34.836Z,53.63
2022-10-04T23:28:07.952Z,53.72
2022-10-04T23:30:34.520Z,53.70
2022-10-04T23:33:01.226Z,53.60
2022-10-04T23:35:32.765Z,53.85
2022-10-04T23:38:01.627Z,53.71
2022-10-04T23:40:28.303Z,53.80
2022-10-04T23:42:56.476Z,53.94
2022-10-04T23:45:25.564Z,53.87
2022-10-04T23:47:54.723Z,53.67
2022-10-04T23:50:25.843Z,53.66
2022-10-04T23:52:57.811Z,53.97
2022-10-04T23:55:28.502Z,54.21
2022-10-04T23:57:54.984Z,53.83
